Time,TemperatureF,DewpointF,PressureIn,WindDirection,WindDirectionDegrees,WindSpeedMPH,WindSpeedGustMPH,Humidity,HourlyPrecipIn,Conditions,Clouds,dailyrainin,SoftwareType,DateUTC
2013-09-26 00:15:00,59.0,51.4,29.71,ENE,67,1.7,-999.0,76,-99.99,,,0.00,Acu-Link.com,2013-09-26 05:15:00,
2013-09-26 00:30:00,59.0,51.4,29.70,SSE,157,3.2,-999.0,76,-99.99,,,0.00,Acu-Link.com,2013-09-26 05:30:00,
2013-09-26 00:45:00,59.0,51.4,29.70,East,90,1.7,-999.0,76,-99.99,,,0.00,Acu-Link.com,2013-09-26 05:45:00,
2013-09-26 01:00:00,58.8,51.6,29.70,NE,45,0.0,-999.0,77,-99.99,,,0.00,Acu-Link.com,2013-09-26 06:00:00,
2013-09-26 01:15:00,59.2,52.0,29.70,SE,135,1.7,-999.0,77,-99.99,,,0.00,Acu-Link.com,2013-09-26 06:15:00,
2013-09-26 01:31:00,59.5,52.3,29.70,SSW,202,2.2,-999.0,77,-99.99,,,0.00,Acu-Link.com,2013-09-26 06:31:00,
2013-09-26 01:46:00,60.1,52.9,29.70,NNE,22,2.2,-999.0,77,-99.99,,,0.00,Acu-Link.com,2013-09-26 06:46:00,
2013-09-26 02:01:00,60.8,53.2,29.70,SE,135,4.7,-999.0,76,-99.99,,,0.00,Acu-Link.com,2013-09-26 07:01:00,
2013-09-26 02:16:00,61.3,53.3,29.69,East,90,5.3,-999.0,75,-99.99,,,0.00,Acu-Link.com,2013-09-26 07:16:00,
2013-09-26 02:31:00,61.3,53.3,29.68,NW,315,2.2,-999.0,75,-99.99,,,0.00,Acu-Link.com,2013-09-26 07:31:00,
2013-09-26 02:46:00,61.3,53.3,29.67,NNW,337,2.7,-999.0,75,-99.99,,,0.00,Acu-Link.com,2013-09-26 07:46:00,
2013-09-26 03:02:00,61.3,53.3,29.68,ESE,112,3.2,-999.0,75,-99.99,,,0.00,Acu-Link.com,2013-09-26 08:02:00,
2013-09-26 03:17:00,61.3,53.3,29.67,ESE,112,4.7,-999.0,75,-99.99,,,0.00,Acu-Link.com,2013-09-26 08:17:00,
2013-09-26 03:33:00,61.3,53.3,29.67,SE,135,3.7,-999.0,75,-99.99,,,0.00,Acu-Link.com,2013-09-26 08:33:00,
2013-09-26 03:48:00,61.0,53.0,29.68,SE,135,3.7,-999.0,75,-99.99,,,0.00,Acu-Link.com,2013-09-26 08:48:00,
2013-09-26 04:03:00,60.8,52.8,29.68,NNE,22,3.2,-999.0,75,-99.99,,,0.00,Acu-Link.com,2013-09-26 09:03:00,
2013-09-26 04:18:00,60.3,52.3,29.68,SSW,202,2.7,-999.0,75,-99.99,,,0.00,Acu-Link.com,2013-09-26 09:18:00,
2013-09-26 04:34:00,60.3,52.3,29.68,SSE,157,3.7,-999.0,75,-99.99,,,0.00,Acu-Link.com,2013-09-26 09:34:00,
2013-09-26 04:49:00,59.9,52.0,29.67,ESE,112,3.2,-999.0,75,-99.99,,,0.00,Acu-Link.com,2013-09-26 09:49:00,
2013-09-26 05:06:00,59.9,52.0,29.67,ESE,112,5.8,-999.0,75,-99.99,,,0.00,Acu-Link.com,2013-09-26 10:06:00,
2013-09-26 05:21:00,59.7,51.8,29.67,ESE,112,2.7,-999.0,75,-99.99,,,0.00,Acu-Link.com,2013-09-26 10:21:00,
2013-09-26 05:37:00,59.5,51.9,29.67,SE,135,2.7,-999.0,76,-99.99,,,0.00,Acu-Link.com,2013-09-26 10:37:00,
2013-09-26 05:52:00,59.4,51.8,29.67,East,90,3.2,-999.0,76,-99.99,,,0.00,Acu-Link.com,2013-09-26 10:52:00,
2013-09-26 06:07:00,59.4,51.8,29.67,NNW,337,3.2,-999.0,76,-99.99,,,0.00,Acu-Link.com,2013-09-26 11:07:00,
2013-09-26 06:22:00,59.5,51.9,29.67,NE,45,2.7,-999.0,76,-99.99,,,0.00,Acu-Link.com,2013-09-26 11:22:00,
2013-09-26 06:38:00,58.6,51.4,29.67,ESE,112,2.7,-999.0,77,-99.99,,,0.00,Acu-Link.com,2013-09-26 11:38:00,
2013-09-26 06:53:00,58.6,51.4,29.67,NNE,22,3.2,-999.0,77,-99.99,,,0.00,Acu-Link.com,2013-09-26 11:53:00,
2013-09-26 07:08:00,58.5,51.3,29.67,SE,135,3.2,-999.0,77,-99.99,,,0.00,Acu-Link.com,2013-09-26 12:08:00,
2013-09-26 07:23:00,58.3,51.5,29.67,West,270,3.7,-999.0,78,-99.99,,,0.00,Acu-Link.com,2013-09-26 12:23:00,
2013-09-26 07:38:00,58.3,51.5,29.68,ESE,112,3.7,-999.0,78,-99.99,,,0.00,Acu-Link.com,2013-09-26 12:38:00,
2013-09-26 07:54:00,58.3,51.5,29.67,South,180,2.7,-999.0,78,-99.99,,,0.00,Acu-Link.com,2013-09-26 12:54:00,
2013-09-26 08:09:00,58.6,51.8,29.68,ENE,67,2.7,-999.0,78,-99.99,,,0.00,Acu-Link.com,2013-09-26 13:09:00,
2013-09-26 08:24:00,59.2,52.3,29.68,SSW,202,3.7,-999.0,78,-99.99,,,0.00,Acu-Link.com,2013-09-26 13:24:00,
2013-09-26 08:39:00,59.7,53.2,29.69,SE,135,4.7,-999.0,79,-99.99,,,0.00,Acu-Link.com,2013-09-26 13:39:00,
2013-09-26 08:55:00,60.4,53.9,29.68,SSE,157,3.2,-999.0,79,-99.99,,,0.00,Acu-Link.com,2013-09-26 13:55:00,
2013-09-26 09:10:00,61.3,54.7,29.68,ESE,112,3.7,-999.0,79,-99.99,,,0.00,Acu-Link.com,2013-09-26 14:10:00,
2013-09-26 09:25:00,62.6,55.6,29.68,ENE,67,6.8,-999.0,78,-99.99,,,0.00,Acu-Link.com,2013-09-26 14:25:00,
2013-09-26 09:40:00,63.9,56.9,29.68,SE,135,3.7,-999.0,78,-99.99,,,0.00,Acu-Link.com,2013-09-26 14:40:00,
2013-09-26 09:55:00,64.9,57.5,29.68,NNE,22,4.2,-999.0,77,-99.99,,,0.00,Acu-Link.com,2013-09-26 14:55:00,
2013-09-26 10:11:00,65.8,58.4,29.68,SE,135,3.7,-999.0,77,-99.99,,,0.00,Acu-Link.com,2013-09-26 15:11:00,
2013-09-26 10:26:00,66.4,58.6,29.68,SE,135,5.3,-999.0,76,-99.99,,,0.00,Acu-Link.com,2013-09-26 15:26:00,
2013-09-26 10:41:00,67.1,59.3,29.68,NE,45,4.2,-999.0,76,-99.99,,,0.00,Acu-Link.com,2013-09-26 15:41:00,
2013-09-26 10:56:00,67.6,59.4,29.67,South,180,3.7,-999.0,75,-99.99,,,0.00,Acu-Link.com,2013-09-26 15:56:00,
2013-09-26 11:11:00,69.3,60.6,29.67,SW,225,2.2,-999.0,74,-99.99,,,0.00,Acu-Link.com,2013-09-26 16:11:00,
2013-09-26 11:27:00,70.0,60.5,29.66,East,90,8.3,-999.0,72,-99.99,,,0.00,Acu-Link.com,2013-09-26 16:27:00,
2013-09-26 11:42:00,70.7,60.8,29.66,ESE,112,4.2,-999.0,71,-99.99,,,0.00,Acu-Link.com,2013-09-26 16:42:00,
2013-09-26 11:57:00,71.6,60.9,29.65,ESE,112,4.2,-999.0,69,-99.99,,,0.00,Acu-Link.com,2013-09-26 16:57:00,
2013-09-26 12:12:00,72.5,60.9,29.65,SSE,157,5.3,-999.0,67,-99.99,,,0.00,Acu-Link.com,2013-09-26 17:12:00,
2013-09-26 12:27:00,73.0,61.0,29.64,ESE,112,3.7,-999.0,66,-99.99,,,0.00,Acu-Link.com,2013-09-26 17:27:00,
2013-09-26 12:43:00,73.8,60.8,29.64,ESE,112,4.7,-999.0,64,-99.99,,,0.00,Acu-Link.com,2013-09-26 17:43:00,
2013-09-26 12:58:00,74.1,60.7,29.64,SW,225,8.9,-999.0,63,-99.99,,,0.00,Acu-Link.com,2013-09-26 17:58:00,
2013-09-26 13:13:00,75.6,61.6,29.63,NNE,22,4.2,-999.0,62,-99.99,,,0.00,Acu-Link.com,2013-09-26 18:13:00,
2013-09-26 13:28:00,75.7,60.8,29.63,SE,135,5.8,-999.0,60,-99.99,,,0.00,Acu-Link.com,2013-09-26 18:28:00,
2013-09-26 13:44:00,76.6,61.2,29.62,East,90,6.3,-999.0,59,-99.99,,,0.00,Acu-Link.com,2013-09-26 18:44:00,
2013-09-26 13:59:00,77.2,60.8,29.62,SSE,157,4.2,-999.0,57,-99.99,,,0.00,Acu-Link.com,2013-09-26 18:59:00,
2013-09-26 14:14:00,78.6,61.6,29.61,East,90,4.7,-999.0,56,-99.99,,,0.00,Acu-Link.com,2013-09-26 19:14:00,
2013-09-26 14:29:00,79.0,60.9,29.60,East,90,5.3,-999.0,54,-99.99,,,0.00,Acu-Link.com,2013-09-26 19:29:00,
2013-09-26 14:44:00,79.3,61.2,29.60,ESE,112,5.8,-999.0,54,-99.99,,,0.00,Acu-Link.com,2013-09-26 19:44:00,
2013-09-26 14:59:00,80.6,61.9,29.60,East,90,3.7,-999.0,53,-99.99,,,0.00,Acu-Link.com,2013-09-26 19:59:00,
2013-09-26 15:14:00,80.2,61.0,29.60,SE,135,4.7,-999.0,52,-99.99,,,0.00,Acu-Link.com,2013-09-26 20:14:00,
2013-09-26 15:30:00,80.6,61.9,29.60,ESE,112,5.3,-999.0,53,-99.99,,,0.00,Acu-Link.com,2013-09-26 20:30:00,
2013-09-26 15:45:00,81.0,61.7,29.59,ESE,112,2.7,-999.0,52,-99.99,,,0.00,Acu-Link.com,2013-09-26 20:45:00,
2013-09-26 16:00:00,81.3,62.0,29.59,ESE,112,5.8,-999.0,52,-99.99,,,0.00,Acu-Link.com,2013-09-26 21:00:00,
2013-09-26 16:15:00,81.1,60.7,29.60,East,90,5.8,-999.0,50,-99.99,,,0.00,Acu-Link.com,2013-09-26 21:15:00,
2013-09-26 16:31:00,80.8,61.0,29.60,South,180,2.7,-999.0,51,-99.99,,,0.00,Acu-Link.com,2013-09-26 21:31:00,
2013-09-26 16:46:00,80.4,61.1,29.60,SE,135,5.8,-999.0,52,-99.99,,,0.00,Acu-Link.com,2013-09-26 21:46:00,
2013-09-26 17:01:00,80.4,61.7,29.60,East,90,4.2,-999.0,53,-99.99,,,0.00,Acu-Link.com,2013-09-26 22:01:00,
2013-09-26 17:16:00,79.9,61.2,29.61,SE,135,4.2,-999.0,53,-99.99,,,0.00,Acu-Link.com,2013-09-26 22:16:00,
2013-09-26 17:31:00,79.7,61.6,29.61,ESE,112,3.7,-999.0,54,-99.99,,,0.00,Acu-Link.com,2013-09-26 22:31:00,
2013-09-26 17:47:00,79.3,61.7,29.61,ESE,112,2.7,-999.0,55,-99.99,,,0.00,Acu-Link.com,2013-09-26 22:47:00,
2013-09-26 18:02:00,79.0,61.4,29.61,South,180,4.7,-999.0,55,-99.99,,,0.00,Acu-Link.com,2013-09-26 23:02:00,
2013-09-26 18:17:00,78.3,61.3,29.62,East,90,2.7,-999.0,56,-99.99,,,0.00,Acu-Link.com,2013-09-26 23:17:00,
2013-09-26 18:32:00,77.7,61.2,29.62,SE,135,1.7,-999.0,57,-99.99,,,0.00,Acu-Link.com,2013-09-26 23:32:00,
2013-09-26 18:47:00,77.2,61.3,29.62,ESE,112,1.7,-999.0,58,-99.99,,,0.00,Acu-Link.com,2013-09-26 23:47:00,
2013-09-26 19:02:00,76.3,60.9,29.62,SSE,157,2.7,-999.0,59,-99.99,,,0.00,Acu-Link.com,2013-09-27 00:02:00,
2013-09-26 19:18:00,75.2,61.3,29.62,ESE,112,0.0,-999.0,62,-99.99,,,0.00,Acu-Link.com,2013-09-27 00:18:00,
2013-09-26 19:33:00,74.5,61.1,29.63,ENE,67,0.0,-999.0,63,-99.99,,,0.00,Acu-Link.com,2013-09-27 00:33:00,
2013-09-26 19:48:00,73.8,61.3,29.63,ESE,112,1.1,-999.0,65,-99.99,,,0.00,Acu-Link.com,2013-09-27 00:48:00,
2013-09-26 20:03:00,73.0,61.4,29.64,East,90,1.1,-999.0,67,-99.99,,,0.00,Acu-Link.com,2013-09-27 01:03:00,
2013-09-26 20:19:00,72.7,61.5,29.65,ESE,112,1.7,-999.0,68,-99.99,,,0.00,Acu-Link.com,2013-09-27 01:19:00,
2013-09-26 20:34:00,72.5,61.3,29.65,East,90,3.2,-999.0,68,-99.99,,,0.00,Acu-Link.com,2013-09-27 01:34:00,
2013-09-26 20:49:00,72.3,61.1,29.66,ENE,67,2.7,-999.0,68,-99.99,,,0.00,Acu-Link.com,2013-09-27 01:49:00,
2013-09-26 21:04:00,72.3,60.7,29.66,NNE,22,2.2,-999.0,67,-99.99,,,0.00,Acu-Link.com,2013-09-27 02:04:00,
2013-09-26 21:20:00,72.1,60.5,29.66,ESE,112,0.0,-999.0,67,-99.99,,,0.00,Acu-Link.com,2013-09-27 02:20:00,
2013-09-26 21:35:00,72.0,60.8,29.66,SSE,157,3.2,-999.0,68,-99.99,,,0.00,Acu-Link.com,2013-09-27 02:35:00,
2013-09-26 21:50:00,72.0,60.8,29.67,SE,135,2.2,-999.0,68,-99.99,,,0.00,Acu-Link.com,2013-09-27 02:50:00,
2013-09-26 22:05:00,71.6,60.5,29.68,ENE,67,3.2,-999.0,68,-99.99,,,0.00,Acu-Link.com,2013-09-27 03:05:00,
2013-09-26 22:20:00,71.6,60.5,29.68,ESE,112,4.2,-999.0,68,-99.99,,,0.00,Acu-Link.com,2013-09-27 03:20:00,
2013-09-26 22:35:00,71.2,60.5,29.68,ESE,112,2.2,-999.0,69,-99.99,,,0.00,Acu-Link.com,2013-09-27 03:35:00,
2013-09-26 22:50:00,71.1,60.4,29.68,ESE,112,4.2,-999.0,69,-99.99,,,0.00,Acu-Link.com,2013-09-27 03:50:00,
2013-09-26 23:06:00,70.5,60.2,29.68,North,0,0.0,-999.0,70,-99.99,,,0.00,Acu-Link.com,2013-09-27 04:06:00,
2013-09-26 23:21:00,70.5,60.2,29.69,East,90,3.2,-999.0,70,-99.99,,,0.00,Acu-Link.com,2013-09-27 04:21:00,
2013-09-26 23:36:00,70.2,60.3,29.68,ESE,112,1.7,-999.0,71,-99.99,,,0.00,Acu-Link.com,2013-09-27 04:36:00,
2013-09-26 23:51:00,70.0,60.2,29.69,SE,135,2.7,-999.0,71,-99.99,,,0.00,Acu-Link.com,2013-09-27 04:51:00,